createdAt,value
2019-02-07T00:04:24.928Z,66.37
2019-02-07T00:09:30.593Z,67.77
2019-02-07T00:14:39.789Z,66.75
2019-02-07T00:19:45.697Z,66.42
2019-02-07T00:24:51.449Z,67.17
2019-02-07T00:29:57.052Z,67.73
2019-02-07T00:35:03.219Z,66.77
2019-02-07T00:40:12.021Z,66.39
2019-02-07T00:45:18.595Z,66.32
2019-02-07T00:50:24.155Z,67.00
2019-02-07T00:55:29.791Z,66.70
2019-02-07T01:00:35.689Z,67.62
2019-02-07T01:05:41.462Z,67.82
2019-02-07T01:10:47.392Z,66.42
2019-02-07T01:15:53.307Z,66.66
2019-02-07T01:20:59.700Z,68.81
2019-02-07T01:26:05.879Z,69.61
2019-02-07T01:31:11.428Z,70.24
2019-02-07T01:36:17.011Z,69.84
2019-02-07T01:41:22.724Z,69.07
2019-02-07T01:46:28.931Z,68.67
2019-02-07T01:51:34.479Z,69.06
2019-02-07T01:56:40.008Z,70.59
2019-02-07T02:01:45.546Z,69.75
2019-02-07T02:06:51.479Z,69.83
2019-02-07T02:11:57.459Z,68.62
2019-02-07T02:17:03.982Z,67.65
2019-02-07T02:22:10.040Z,67.78
2019-02-07T02:27:17.091Z,68.26
2019-02-07T02:32:22.557Z,69.44
2019-02-07T02:37:28.111Z,68.84
2019-02-07T02:42:34.189Z,67.62
2019-02-07T02:47:39.751Z,66.95
2019-02-07T02:52:45.380Z,67.47
2019-02-07T02:57:50.906Z,68.34
2019-02-07T03:03:16.518Z,67.22
2019-02-07T03:08:39.640Z,67.17
2019-02-07T03:14:10.268Z,68.03
2019-02-07T03:19:35.679Z,68.60
2019-02-07T03:25:00.286Z,69.03
2019-02-07T03:30:27.359Z,67.40
2019-02-07T03:35:57.650Z,67.27
2019-02-07T03:41:41.839Z,67.97
2019-02-07T03:47:04.558Z,66.57
2019-02-07T03:52:30.287Z,66.14
2019-02-07T03:57:48.360Z,66.54
2019-02-07T04:03:31.360Z,67.26
2019-02-07T04:08:56.945Z,66.09
2019-02-07T04:14:21.423Z,66.00
2019-02-07T04:19:39.562Z,66.22
2019-02-07T04:25:03.339Z,67.42
2019-02-07T04:30:43.345Z,66.52
2019-02-07T04:36:08.218Z,67.78
2019-02-07T04:41:41.689Z,66.80
2019-02-07T04:47:06.140Z,66.41
2019-02-07T04:52:43.286Z,66.66
2019-02-07T04:58:23.423Z,67.89
2019-02-07T05:03:55.038Z,65.94
2019-02-07T05:09:18.122Z,67.23
2019-02-07T05:14:33.218Z,67.38
2019-02-07T05:20:13.366Z,66.98
2019-02-07T05:25:47.908Z,68.14
2019-02-07T05:31:03.610Z,67.33
2019-02-07T05:36:33.801Z,67.48
2019-02-07T05:42:01.892Z,68.39
2019-02-07T05:47:30.135Z,68.23
2019-02-07T05:53:09.850Z,68.46
2019-02-07T05:58:26.413Z,68.22
2019-02-07T06:04:06.753Z,68.41
2019-02-07T06:09:31.890Z,68.24
2019-02-07T06:14:56.349Z,68.70
2019-02-07T06:20:12.342Z,69.33
2019-02-07T06:25:37.602Z,69.73
2019-02-07T06:30:52.847Z,67.01
2019-02-07T06:36:36.748Z,67.68
2019-02-07T06:42:07.614Z,68.80
2019-02-07T06:47:50.268Z,67.88
2019-02-07T06:53:23.435Z,67.46
2019-02-07T06:59:03.574Z,65.83
2019-02-07T07:04:37.379Z,66.65
2019-02-07T07:10:02.156Z,66.45
2019-02-07T07:15:26.690Z,66.12
2019-02-07T07:20:45.843Z,65.75
2019-02-07T07:26:09.631Z,66.86
2019-02-07T07:31:40.220Z,65.91
2019-02-07T07:37:07.204Z,65.14
2019-02-07T07:42:35.046Z,65.38
2019-02-07T07:48:06.379Z,65.90
2019-02-07T07:53:30.083Z,64.76
2019-02-07T07:58:53.194Z,63.85
2019-02-07T08:04:17.658Z,62.98
2019-02-07T08:09:45.188Z,62.58
2019-02-07T08:15:05.051Z,61.77
2019-02-07T08:20:29.775Z,59.45
2019-02-07T08:26:06.420Z,58.68
2019-02-07T08:31:30.109Z,59.05
2019-02-07T08:36:53.606Z,61.67
2019-02-07T08:42:16.663Z,61.40
2019-02-07T08:47:41.104Z,58.30
2019-02-07T08:52:56.129Z,56.62
2019-02-07T08:58:19.443Z,55.58
2019-02-07T09:03:46.708Z,56.57
2019-02-07T09:09:25.930Z,53.78
2019-02-07T09:14:41.605Z,53.56
2019-02-07T09:20:18.241Z,52.01
2019-02-07T09:25:48.843Z,50.08
2019-02-07T09:31:12.928Z,48.88
2019-02-07T09:36:34.397Z,56.15
2019-02-07T09:41:59.908Z,53.24
2019-02-07T09:47:36.766Z,48.58
2019-02-07T09:53:01.165Z,50.39
2019-02-07T09:58:36.008Z,49.19
2019-02-07T10:04:12.513Z,47.85
2019-02-07T10:09:35.948Z,46.94
2019-02-07T10:14:59.551Z,45.79
2019-02-07T10:20:41.484Z,46.00
2019-02-07T10:26:06.330Z,44.63
2019-02-07T10:31:23.845Z,45.14
2019-02-07T10:36:51.554Z,44.00
2019-02-07T10:42:22.064Z,45.02
2019-02-07T10:48:01.612Z,43.96
2019-02-07T10:53:35.111Z,43.96
2019-02-07T10:58:58.260Z,45.99
2019-02-07T11:04:26.708Z,47.08
2019-02-07T11:09:51.728Z,47.66
2019-02-07T11:15:18.489Z,47.30
2019-02-07T11:20:48.948Z,46.84
2019-02-07T11:26:12.604Z,45.94
2019-02-07T11:31:52.142Z,45.94
2019-02-07T11:37:15.224Z,45.71
2019-02-07T11:42:45.814Z,45.94
2019-02-07T11:48:09.521Z,46.03
2019-02-07T11:53:50.888Z,44.23
2019-02-07T11:59:26.715Z,44.23
2019-02-07T12:04:51.675Z,44.00
2019-02-07T12:10:14.844Z,43.20
2019-02-07T12:15:28.415Z,42.61
2019-02-07T12:21:05.222Z,43.16
2019-02-07T12:26:27.696Z,43.29
2019-02-07T12:32:05.367Z,42.07
2019-02-07T12:37:33.251Z,41.96
2019-02-07T12:42:49.887Z,42.09
2019-02-07T12:48:12.832Z,41.43
2019-02-07T12:53:40.018Z,42.21
2019-02-07T12:59:09.221Z,42.19
2019-02-07T13:04:43.297Z,42.14
2019-02-07T13:10:09.542Z,41.62
2019-02-07T13:15:35.472Z,42.27
2019-02-07T13:20:59.992Z,41.99
2019-02-07T13:26:27.756Z,41.92
2019-02-07T13:31:55.326Z,42.33
2019-02-07T13:37:18.822Z,42.57
2019-02-07T13:42:43.291Z,42.69
2019-02-07T13:48:17.340Z,43.29
2019-02-07T13:53:31.640Z,43.53
2019-02-07T13:59:05.039Z,45.02
2019-02-07T14:04:28.439Z,44.51
2019-02-07T14:10:08.615Z,44.08
2019-02-07T14:15:45.201Z,44.23
2019-02-07T14:21:08.193Z,45.08
2019-02-07T14:26:40.249Z,45.27
2019-02-07T14:32:04.527Z,47.11
2019-02-07T14:37:38.085Z,46.60
2019-02-07T14:43:05.515Z,46.27
2019-02-07T14:48:23.242Z,47.49
2019-02-07T14:53:29.254Z,50.00
2019-02-07T14:58:36.045Z,49.51
2019-02-07T15:03:42.150Z,51.50
2019-02-07T15:08:47.784Z,51.70
2019-02-07T15:13:53.542Z,52.24
2019-02-07T15:18:59.206Z,53.89
2019-02-07T15:24:08.394Z,55.90
2019-02-07T15:29:16.081Z,55.63
2019-02-07T15:34:22.030Z,54.76
2019-02-07T15:39:28.541Z,56.13
2019-02-07T15:44:35.525Z,57.32
2019-02-07T15:49:43.483Z,58.56
2019-02-07T15:54:49.548Z,60.70
2019-02-07T15:59:59.064Z,59.73
2019-02-07T16:05:08.509Z,59.52
2019-02-07T16:10:17.123Z,61.33
2019-02-07T16:15:23.078Z,60.96
2019-02-07T16:20:29.252Z,61.93
2019-02-07T16:25:36.695Z,61.93
2019-02-07T16:30:43.429Z,62.96
2019-02-07T16:35:52.011Z,63.72
2019-02-07T16:41:00.325Z,63.36
2019-02-07T16:46:06.893Z,64.13
2019-02-07T16:51:12.827Z,64.64
2019-02-07T16:56:20.330Z,65.42
2019-02-07T17:01:29.634Z,67.87
2019-02-07T17:06:35.568Z,67.74
2019-02-07T17:11:41.589Z,67.74
2019-02-07T17:16:49.306Z,67.15
2019-02-07T17:21:55.323Z,66.88
2019-02-07T17:27:01.267Z,67.33
2019-02-07T17:32:10.340Z,67.91
2019-02-07T17:37:16.243Z,67.85
2019-02-07T17:42:24.472Z,67.18
2019-02-07T17:47:31.235Z,68.23
2019-02-07T17:52:39.606Z,68.96
2019-02-07T17:57:47.249Z,67.73
2019-02-07T18:02:54.496Z,68.39
2019-02-07T18:08:01.481Z,67.76
2019-02-07T18:13:08.230Z,67.66
2019-02-07T18:18:14.832Z,68.80
2019-02-07T18:23:22.506Z,68.65
2019-02-07T18:28:32.650Z,68.48
2019-02-07T18:33:41.179Z,69.64
2019-02-07T18:38:48.907Z,68.80
2019-02-07T18:44:02.309Z,67.86
2019-02-07T18:49:16.595Z,69.56
2019-02-07T18:54:26.713Z,69.68
2019-02-07T18:59:35.101Z,69.12
2019-02-07T19:04:42.134Z,71.35
2019-02-07T19:09:50.962Z,70.96
2019-02-07T19:14:57.823Z,71.76
2019-02-07T19:20:25.127Z,71.74
2019-02-07T19:25:47.210Z,70.73
2019-02-07T19:30:53.990Z,72.01
2019-02-07T19:36:00.103Z,70.46
2019-02-07T19:41:07.438Z,70.75
2019-02-07T19:46:19.015Z,72.54
2019-02-07T19:51:28.684Z,73.59
2019-02-07T19:56:39.763Z,74.53
2019-02-07T20:01:47.835Z,73.15
2019-02-07T20:06:54.147Z,72.13
2019-02-07T20:12:02.441Z,73.85
2019-02-07T20:17:11.560Z,73.64
2019-02-07T20:22:20.197Z,74.15
2019-02-07T20:27:26.180Z,72.87
2019-02-07T20:32:35.882Z,71.33
2019-02-07T20:37:50.865Z,71.08
2019-02-07T20:42:56.799Z,70.77
2019-02-07T20:48:06.942Z,70.65
2019-02-07T20:53:18.545Z,70.52
2019-02-07T20:58:25.374Z,71.79
2019-02-07T21:03:34.398Z,71.04
2019-02-07T21:08:41.495Z,71.83
2019-02-07T21:13:49.927Z,72.59
2019-02-07T21:18:57.796Z,71.39
2019-02-07T21:24:05.504Z,72.27
2019-02-07T21:29:11.212Z,71.89
2019-02-07T21:34:17.191Z,73.39
2019-02-07T21:39:23.520Z,72.87
2019-02-07T21:44:30.146Z,72.64
2019-02-07T21:49:36.260Z,72.32
2019-02-07T21:54:42.524Z,71.49
2019-02-07T21:59:48.357Z,72.03
2019-02-07T22:04:54.432Z,71.93
2019-02-07T22:10:00.006Z,71.24
2019-02-07T22:15:08.382Z,71.84
2019-02-07T22:20:20.284Z,71.67
2019-02-07T22:25:26.058Z,71.25
2019-02-07T22:30:33.862Z,71.82
2019-02-07T22:35:39.503Z,70.03
2019-02-07T22:40:49.272Z,71.36
2019-02-07T22:45:55.222Z,70.46
2019-02-07T22:51:00.800Z,71.16
2019-02-07T22:56:08.005Z,71.41
2019-02-07T23:01:58.533Z,69.94
2019-02-07T23:07:10.508Z,70.52
2019-02-07T23:12:16.088Z,69.91
2019-02-07T23:17:21.650Z,70.24
2019-02-07T23:22:27.941Z,71.15
2019-02-07T23:27:33.562Z,70.19
2019-02-07T23:32:39.135Z,71.83
2019-02-07T23:37:45.015Z,71.43
2019-02-07T23:42:51.096Z,70.75
2019-02-07T23:53:53.820Z,70.83
2019-02-07T23:59:00.244Z,70.86
